Arncliffe, Australia
Current Conditions -  °F | °C
As of 5:30 PM on Saturday 25 Oct 2014 (Local Time) from YSSY Reporting Station
Rain Showers Rain Showers  
Wind Chill: 68°   Ceiling: 700
Heat Index: 68°   Visibility: 5mi
Dew Point: 64°   Wind: 17mph
Humidity: 88%   Direction: 180°S
Pressure: 29.91"   Gusts: NA
Location:  33.93°S, 151.15°E
Report Text: YSSY 250630Z 18015KT 8000 VCSH FEW005 BKN007 20/18 Q1013 FM0800 15010KT 9999 -SHRA BKN007 BKN025 INTER 0630/0730 5000 BR BKN005
Loading
Personal Weather Stations






























Interactive Weather Map
Tropical Storm Tracking
New forecast layout! Learn more

10-Day Weather Forecast

Advertisements
Track Severe Weather on mobile